ADDS METAR Data INFO
IDs: Format: Raw Decoded Include TAF

Data at: 0918 UTC 20 Jan 2018

METAR for:KCVG (Cincinnati Intl, KY, US)
Text:KCVG 200852Z 21009KT 10SM BKN250 02/M04 A3002 RMK AO2 SLP170 T00171039 53006
Temperature: 1.7°C ( 35°F)
Dewpoint: -3.9°C ( 25°F) [RH = 66%]
Pressure (altimeter):30.02 inches Hg (1016.7 mb) [Sea level pressure: 1017.0 mb]
Winds:from the SSW (210 degrees) at 10 MPH (9 knots; 4.6 m/s)
Visibility:10 or more sm (16+ km)
Ceiling:25000 feet AGL
Clouds: broken clouds at 25000 feet AGL